Terminal Aerodrome Forecast
Issued by NWS

Home | Current Version | Previous Version | Graphics & Text | Print | Product List | Glossary On
Versions: 1 2 3 4 5 6 7 8 9 10 11 12 13 14 15 16 17 18 19 20 21 22 23 24 25 26 27 28 29 30 31 32 33 34 35 36 37
800
FTUS43 KGRB 251729
TAFRHI
TAF
KRHI 251729Z 2518/2618 09012KT P6SM OVC014
     FM260200 09008KT P6SM VCSH OVC010
     FM260400 09007KT 5SM -RA BR OVC008
     FM260600 09006KT 3SM -FZRA BR OVC004
     FM261300 08005KT 2SM -RA BR OVC003
     FM261500 08004KT P6SM OVC003=

USA.gov is the U.S. government's official web portal to all federal, state and local government web resources and services.